createdAt,value
2022-09-22T00:01:33.072Z,9.30
2022-09-22T00:04:04.368Z,9.30
2022-09-22T00:06:35.378Z,9.30
2022-09-22T00:09:06.495Z,9.30
2022-09-22T00:11:37.494Z,9.20
2022-09-22T00:14:07.892Z,9.20
2022-09-22T00:16:39.015Z,9.20
2022-09-22T00:19:07.645Z,9.20
2022-09-22T00:21:36.835Z,9.10
2022-09-22T00:24:08.180Z,9.10
2022-09-22T00:26:38.073Z,9.10
2022-09-22T00:29:08.054Z,9.10
2022-09-22T00:31:37.485Z,9.00
2022-09-22T00:34:06.057Z,9.00
2022-09-22T00:36:34.782Z,8.90
2022-09-22T00:39:02.763Z,8.90
2022-09-22T00:41:34.071Z,8.90
2022-09-22T00:44:30.155Z,8.90
2022-09-22T00:47:02.102Z,8.90
2022-09-22T00:49:38.939Z,8.90
2022-09-22T00:52:07.787Z,8.90
2022-09-22T00:54:36.235Z,8.80
2022-09-22T00:57:09.067Z,8.80
2022-09-22T00:59:37.585Z,8.80
2022-09-22T01:02:05.846Z,8.80
2022-09-22T01:04:34.247Z,8.70
2022-09-22T01:07:02.736Z,8.70
2022-09-22T01:09:32.956Z,8.70
2022-09-22T01:12:01.332Z,8.70
2022-09-22T01:14:43.056Z,8.70
2022-09-22T01:17:19.552Z,8.70
2022-09-22T01:20:17.659Z,8.60
2022-09-22T01:23:15.543Z,8.60
2022-09-22T01:26:10.256Z,8.60
2022-09-22T01:29:04.914Z,8.50
2022-09-22T01:31:38.120Z,8.50
2022-09-22T01:34:13.091Z,8.50
2022-09-22T01:36:50.701Z,8.50
2022-09-22T01:39:22.747Z,8.40
2022-09-22T01:41:58.255Z,8.40
2022-09-22T01:44:33.023Z,8.40
2022-09-22T01:47:06.379Z,8.40
2022-09-22T01:49:38.527Z,8.40
2022-09-22T01:52:13.067Z,8.40
2022-09-22T01:54:45.375Z,8.30
2022-09-22T01:57:18.332Z,8.30
2022-09-22T01:59:52.724Z,8.30
2022-09-22T02:02:26.695Z,8.30
2022-09-22T02:05:00.118Z,8.30
2022-09-22T02:07:33.797Z,8.30
2022-09-22T02:10:06.566Z,8.30
2022-09-22T02:12:35.985Z,8.20
2022-09-22T02:15:04.125Z,8.20
2022-09-22T02:17:35.444Z,8.20
2022-09-22T02:20:06.514Z,8.20
2022-09-22T02:22:34.486Z,8.20
2022-09-22T02:25:02.821Z,8.20
2022-09-22T02:27:36.776Z,8.20
2022-09-22T02:30:08.220Z,8.10
2022-09-22T02:32:40.459Z,8.10
2022-09-22T02:35:09.871Z,8.10
2022-09-22T02:37:44.673Z,8.10
2022-09-22T02:40:25.566Z,8.00
2022-09-22T02:42:59.547Z,8.00
2022-09-22T02:45:32.111Z,8.00
2022-09-22T02:48:05.452Z,8.00
2022-09-22T02:50:35.419Z,8.00
2022-09-22T02:53:05.533Z,7.90
2022-09-22T02:55:33.495Z,7.90
2022-09-22T02:58:01.401Z,7.90
2022-09-22T03:00:29.328Z,7.90
2022-09-22T03:02:57.189Z,7.90
2022-09-22T03:05:26.731Z,7.80
2022-09-22T03:07:54.667Z,7.80
2022-09-22T03:10:22.581Z,7.80
2022-09-22T03:13:15.048Z,7.80
2022-09-22T03:15:38.708Z,7.80
2022-09-22T03:18:06.765Z,7.80
2022-09-22T03:20:36.029Z,7.80
2022-09-22T03:23:03.953Z,7.70
2022-09-22T03:25:31.950Z,7.70
2022-09-22T03:27:59.959Z,7.70
2022-09-22T03:30:29.210Z,7.70
2022-09-22T03:32:57.168Z,7.70
2022-09-22T03:35:25.116Z,7.60
2022-09-22T03:37:54.365Z,7.60
2022-09-22T03:40:23.231Z,7.60
2022-09-22T03:42:51.189Z,7.60
2022-09-22T03:45:19.242Z,7.60
2022-09-22T03:47:47.511Z,7.60
2022-09-22T03:50:15.650Z,7.60
2022-09-22T03:52:44.965Z,7.60
2022-09-22T03:55:14.553Z,7.60
2022-09-22T03:57:43.775Z,7.60
2022-09-22T04:00:14.003Z,7.50
2022-09-22T04:02:42.344Z,7.50
2022-09-22T04:05:11.309Z,7.50
2022-09-22T04:07:39.816Z,7.40
2022-09-22T04:10:09.023Z,7.40
2022-09-22T04:12:38.287Z,7.40
2022-09-22T04:15:07.235Z,7.30
2022-09-22T04:17:35.321Z,7.30
2022-09-22T04:20:03.926Z,7.30
2022-09-22T04:22:31.907Z,7.30
2022-09-22T04:25:00.254Z,7.40
2022-09-22T04:27:28.148Z,7.40
2022-09-22T04:29:57.459Z,7.40
2022-09-22T04:32:25.394Z,7.40
2022-09-22T04:34:53.309Z,7.40
2022-09-22T04:37:21.219Z,7.40
2022-09-22T04:39:49.107Z,7.30
2022-09-22T04:42:17.045Z,7.30
2022-09-22T04:44:46.108Z,7.30
2022-09-22T04:47:15.351Z,7.30
2022-09-22T04:49:43.211Z,7.30
2022-09-22T04:52:11.368Z,7.30
2022-09-22T04:54:39.269Z,7.30
2022-09-22T04:57:07.253Z,7.20
2022-09-22T04:59:35.329Z,7.30
2022-09-22T05:02:03.621Z,7.20
2022-09-22T05:04:32.861Z,7.20
2022-09-22T05:07:00.739Z,7.20
2022-09-22T05:09:29.172Z,7.20
2022-09-22T05:12:01.371Z,7.20
2022-09-22T05:14:29.579Z,7.20
2022-09-22T05:16:57.656Z,7.20
2022-09-22T05:19:25.650Z,7.20
2022-09-22T05:21:54.971Z,7.20
2022-09-22T05:24:22.950Z,7.20
2022-09-22T05:26:50.880Z,7.20
2022-09-22T05:29:18.775Z,7.20
2022-09-22T05:31:49.154Z,7.20
2022-09-22T05:34:17.221Z,7.20
2022-09-22T05:36:45.143Z,7.20
2022-09-22T05:39:14.478Z,7.20
2022-09-22T05:41:42.393Z,7.20
2022-09-22T05:44:10.313Z,7.20
2022-09-22T05:46:38.225Z,7.20
2022-09-22T05:49:06.173Z,7.30
2022-09-22T05:51:34.189Z,7.30
2022-09-22T05:54:02.732Z,7.30
2022-09-22T05:56:33.833Z,7.40
2022-09-22T05:59:01.779Z,7.40
2022-09-22T06:01:30.018Z,7.40
2022-09-22T06:03:57.953Z,7.50
2022-09-22T06:06:25.948Z,7.50
2022-09-22T06:08:53.865Z,7.60
2022-09-22T06:11:21.826Z,7.60
2022-09-22T06:13:52.208Z,7.60
2022-09-22T06:16:20.192Z,7.70
2022-09-22T06:18:48.786Z,7.70
2022-09-22T06:21:17.511Z,7.80
2022-09-22T06:23:45.419Z,7.80
2022-09-22T06:26:13.332Z,7.90
2022-09-22T06:28:41.266Z,7.90
2022-09-22T06:31:10.567Z,7.90
2022-09-22T06:33:38.530Z,7.90
2022-09-22T06:36:08.075Z,8.00
2022-09-22T06:38:35.992Z,8.10
2022-09-22T06:41:04.296Z,8.10
2022-09-22T06:43:32.905Z,8.20
2022-09-22T06:46:02.804Z,8.20
2022-09-22T06:48:32.197Z,8.30
2022-09-22T06:51:00.150Z,8.40
2022-09-22T06:53:28.329Z,8.40
2022-09-22T06:55:56.269Z,8.50
2022-09-22T06:58:25.265Z,8.60
2022-09-22T07:00:53.633Z,8.70
2022-09-22T07:03:24.359Z,8.70
2022-09-22T07:06:00.773Z,8.80
2022-09-22T07:08:30.480Z,8.90
2022-09-22T07:11:00.847Z,9.00
2022-09-22T07:13:30.610Z,9.10
2022-09-22T07:16:01.924Z,9.20
2022-09-22T07:18:30.061Z,9.30
2022-09-22T07:21:05.687Z,9.40
2022-09-22T07:23:34.623Z,9.50
2022-09-22T07:26:04.058Z,9.60
2022-09-22T07:28:33.514Z,9.70
2022-09-22T07:31:05.966Z,9.90
2022-09-22T07:33:33.942Z,10.10
2022-09-22T07:36:05.714Z,10.20
2022-09-22T07:38:36.522Z,10.30
2022-09-22T07:41:07.089Z,10.40
2022-09-22T07:43:35.269Z,10.60
2022-09-22T07:46:03.788Z,10.60
2022-09-22T07:48:38.094Z,10.80
2022-09-22T07:51:15.707Z,10.90
2022-09-22T07:53:45.757Z,11.00
2022-09-22T07:56:15.450Z,11.10
2022-09-22T07:58:46.858Z,11.30
2022-09-22T08:01:15.439Z,11.40
2022-09-22T08:03:44.102Z,11.60
2022-09-22T08:06:18.265Z,11.70
2022-09-22T08:08:52.337Z,11.80
2022-09-22T08:11:21.915Z,11.90
2022-09-22T08:13:52.558Z,12.00
2022-09-22T08:16:22.600Z,12.20
2022-09-22T08:18:56.029Z,12.40
2022-09-22T08:21:25.448Z,12.50
2022-09-22T08:23:53.394Z,12.60
2022-09-22T08:26:22.882Z,12.80
2022-09-22T08:28:53.318Z,12.90
2022-09-22T08:31:22.469Z,13.00
2022-09-22T08:33:52.903Z,13.20
2022-09-22T08:36:21.574Z,13.30
2022-09-22T08:38:50.854Z,13.50
2022-09-22T08:41:27.413Z,13.70
2022-09-22T08:44:00.534Z,13.80
2022-09-22T08:46:31.160Z,14.00
2022-09-22T08:49:21.314Z,14.10
2022-09-22T08:51:54.934Z,14.20
2022-09-22T08:54:27.979Z,14.40
2022-09-22T08:57:15.090Z,14.60
2022-09-22T08:59:47.197Z,14.70
2022-09-22T09:02:41.120Z,15.00
2022-09-22T09:05:39.467Z,15.20
2022-09-22T09:08:23.810Z,15.40
2022-09-22T09:10:56.272Z,15.80
2022-09-22T09:13:38.380Z,16.20
2022-09-22T09:16:25.775Z,17.00
2022-09-22T09:18:58.586Z,17.90
2022-09-22T09:21:27.829Z,18.70
2022-09-22T09:26:52.331Z,21.60
2022-09-22T09:29:25.653Z,24.90
2022-09-22T09:31:55.825Z,27.60
2022-09-22T09:34:26.822Z,29.90
2022-09-22T09:37:03.060Z,32.20
2022-09-22T09:39:33.315Z,34.00
2022-09-22T09:42:04.748Z,36.10
2022-09-22T09:44:38.969Z,37.60
2022-09-22T09:47:17.353Z,39.30
2022-09-22T09:49:45.389Z,40.50
2022-09-22T09:52:15.396Z,41.00
2022-09-22T09:54:47.234Z,41.40
2022-09-22T09:57:18.176Z,41.80
2022-09-22T10:00:05.320Z,41.60
2022-09-22T10:02:37.089Z,41.70
2022-09-22T10:05:08.445Z,42.20
2022-09-22T10:07:43.124Z,41.90
2022-09-22T10:10:33.672Z,42.10
2022-09-22T10:13:32.053Z,42.40
2022-09-22T10:16:07.272Z,43.00
2022-09-22T10:18:40.451Z,43.50
2022-09-22T10:21:16.183Z,43.80
2022-09-22T10:23:45.031Z,44.10
2022-09-22T10:26:19.687Z,44.50
2022-09-22T10:29:09.100Z,43.90
2022-09-22T10:31:38.597Z,43.40
2022-09-22T10:34:08.089Z,42.90
2022-09-22T10:36:44.701Z,41.90
2022-09-22T10:39:18.716Z,40.80
2022-09-22T10:41:47.921Z,40.40
2022-09-22T10:44:38.596Z,40.10
2022-09-22T10:47:27.251Z,39.50
2022-09-22T10:50:27.855Z,38.70
2022-09-22T10:53:03.016Z,38.60
2022-09-22T10:55:35.533Z,38.90
2022-09-22T10:58:22.242Z,39.00
2022-09-22T11:01:00.900Z,39.20
2022-09-22T11:03:44.455Z,39.60
2022-09-22T11:06:51.177Z,39.90
2022-09-22T11:09:42.302Z,39.60
2022-09-22T11:12:23.491Z,39.40
2022-09-22T11:15:13.240Z,38.70
2022-09-22T11:18:01.972Z,37.80
2022-09-22T11:20:36.725Z,37.30
2022-09-22T11:23:47.061Z,36.90
2022-09-22T11:26:37.083Z,36.50
2022-09-22T11:29:34.850Z,35.70
2022-09-22T11:32:11.918Z,35.00
2022-09-22T11:35:04.124Z,34.10
2022-09-22T11:37:44.035Z,32.90
2022-09-22T11:40:32.784Z,31.50
2022-09-22T11:43:13.286Z,30.20
2022-09-22T11:45:49.680Z,29.00
2022-09-22T11:48:35.506Z,27.80
2022-09-22T11:51:36.253Z,26.60
2022-09-22T11:54:18.270Z,25.60
2022-09-22T11:56:50.968Z,24.80
2022-09-22T11:59:30.680Z,24.10
2022-09-22T12:02:04.609Z,23.50
2022-09-22T12:04:38.147Z,22.80
2022-09-22T12:07:19.603Z,22.30
2022-09-22T12:09:51.656Z,21.90
2022-09-22T12:12:23.099Z,21.60
2022-09-22T12:14:57.979Z,21.20
2022-09-22T12:17:33.168Z,21.10
2022-09-22T12:20:08.588Z,21.00
2022-09-22T12:22:58.624Z,20.90
2022-09-22T12:25:50.564Z,20.80
2022-09-22T12:28:20.673Z,20.70
2022-09-22T12:31:04.871Z,20.50
2022-09-22T12:33:35.202Z,20.50
2022-09-22T12:36:04.437Z,20.50
2022-09-22T12:38:34.134Z,20.40
2022-09-22T12:41:04.307Z,20.30
2022-09-22T12:43:34.122Z,20.30
2022-09-22T12:46:06.945Z,20.30
2022-09-22T12:48:37.120Z,20.20
2022-09-22T12:51:17.422Z,20.30
2022-09-22T12:56:44.281Z,20.40
2022-09-22T12:59:47.496Z,20.50
2022-09-22T13:02:29.347Z,20.60
2022-09-22T13:05:35.990Z,20.70
2022-09-22T13:08:04.740Z,20.90
2022-09-22T13:10:52.109Z,20.90
2022-09-22T13:13:24.013Z,21.00
2022-09-22T13:16:00.012Z,21.10
2022-09-22T13:18:33.233Z,21.20
2022-09-22T13:21:02.886Z,21.30
2022-09-22T13:23:31.331Z,21.40
2022-09-22T13:26:15.320Z,21.50
2022-09-22T13:28:43.557Z,21.50
2022-09-22T13:31:14.955Z,21.50
2022-09-22T13:33:43.842Z,21.50
2022-09-22T13:36:14.595Z,21.50
2022-09-22T13:38:44.985Z,21.40
2022-09-22T13:41:17.860Z,21.40
2022-09-22T13:43:49.716Z,21.50
2022-09-22T13:46:22.489Z,21.50
2022-09-22T13:48:51.828Z,21.70
2022-09-22T13:51:19.839Z,21.70
2022-09-22T13:53:52.330Z,21.80
2022-09-22T13:56:23.815Z,21.90
2022-09-22T13:58:55.471Z,22.00
2022-09-22T14:01:26.188Z,22.10
2022-09-22T14:03:56.627Z,22.20
2022-09-22T14:06:27.243Z,22.10
2022-09-22T14:08:56.033Z,22.20
2022-09-22T14:11:28.392Z,22.10
2022-09-22T14:14:02.221Z,22.00
2022-09-22T14:16:35.626Z,21.90
2022-09-22T14:19:06.349Z,21.90
2022-09-22T14:21:41.322Z,22.00
2022-09-22T14:24:12.612Z,22.10
2022-09-22T14:26:47.539Z,22.10
2022-09-22T14:29:19.192Z,22.00
2022-09-22T14:31:52.139Z,21.90
2022-09-22T14:34:24.984Z,21.80
2022-09-22T14:36:55.064Z,21.80
2022-09-22T14:39:31.457Z,21.90
2022-09-22T14:42:11.278Z,21.90
2022-09-22T14:44:44.553Z,21.80
2022-09-22T14:47:27.709Z,21.70
2022-09-22T14:50:18.680Z,21.70
2022-09-22T14:52:59.047Z,21.60
2022-09-22T14:55:36.467Z,21.60
2022-09-22T14:58:09.576Z,21.60
2022-09-22T15:00:55.652Z,21.50
2022-09-22T15:03:27.320Z,21.40
2022-09-22T15:05:56.474Z,21.30
2022-09-22T15:08:28.208Z,21.40
2022-09-22T15:10:57.679Z,21.40
2022-09-22T15:13:37.512Z,21.50
2022-09-22T15:16:06.724Z,21.50
2022-09-22T15:18:34.961Z,21.50
2022-09-22T15:21:11.338Z,21.50
2022-09-22T15:23:42.501Z,21.50
2022-09-22T15:26:16.427Z,21.50
2022-09-22T15:28:48.342Z,21.50
2022-09-22T15:31:22.263Z,21.40
2022-09-22T15:33:50.285Z,21.40
2022-09-22T15:36:21.489Z,21.30
2022-09-22T15:38:49.967Z,21.30
2022-09-22T15:41:17.799Z,21.20
2022-09-22T15:43:47.184Z,21.20
2022-09-22T15:46:28.099Z,21.10
2022-09-22T15:49:00.825Z,21.00
2022-09-22T15:51:30.362Z,21.00
2022-09-22T15:53:58.671Z,20.90
2022-09-22T15:56:30.066Z,20.90
2022-09-22T15:59:01.966Z,20.80
2022-09-22T16:01:31.489Z,20.70
2022-09-22T16:04:00.312Z,20.60
2022-09-22T16:06:28.496Z,20.50
2022-09-22T16:08:58.442Z,20.40
2022-09-22T16:11:29.500Z,20.30
2022-09-22T16:14:01.091Z,20.20
2022-09-22T16:16:30.187Z,20.10
2022-09-22T16:18:58.872Z,20.00
2022-09-22T16:21:29.319Z,20.00
2022-09-22T16:24:03.408Z,19.90
2022-09-22T16:26:32.500Z,19.80
2022-09-22T16:29:03.129Z,19.70
2022-09-22T16:31:31.278Z,19.60
2022-09-22T16:34:01.548Z,19.50
2022-09-22T16:36:32.851Z,19.40
2022-09-22T16:39:01.870Z,19.30
2022-09-22T16:41:31.985Z,19.30
2022-09-22T16:44:02.345Z,19.20
2022-09-22T16:46:33.648Z,19.10
2022-09-22T16:49:05.242Z,19.10
2022-09-22T16:51:35.445Z,19.00
2022-09-22T16:54:03.653Z,18.90
2022-09-22T16:56:33.872Z,18.90
2022-09-22T16:59:04.865Z,18.80
2022-09-22T17:01:36.321Z,18.70
2022-09-22T17:04:05.771Z,18.60
2022-09-22T17:06:34.051Z,18.50
2022-09-22T17:09:01.938Z,18.40
2022-09-22T17:11:34.419Z,18.40
2022-09-22T17:14:10.042Z,18.30
2022-09-22T17:16:41.032Z,18.20
2022-09-22T17:19:10.456Z,18.10
2022-09-22T17:21:40.033Z,18.00
2022-09-22T17:24:09.891Z,18.00
2022-09-22T17:26:41.194Z,17.90
2022-09-22T17:29:10.905Z,17.80
2022-09-22T17:31:41.613Z,17.70
2022-09-22T17:34:10.453Z,17.70
2022-09-22T17:36:38.898Z,17.60
2022-09-22T17:39:07.384Z,17.50
2022-09-22T17:41:35.612Z,17.40
2022-09-22T17:44:04.664Z,17.30
2022-09-22T17:46:35.413Z,17.30
2022-09-22T17:49:21.116Z,17.10
2022-09-22T17:52:08.017Z,17.10
2022-09-22T17:54:55.091Z,16.90
2022-09-22T17:57:24.928Z,16.90
2022-09-22T17:59:55.060Z,16.80
2022-09-22T18:02:26.073Z,16.70
2022-09-22T18:04:54.319Z,16.60
2022-09-22T18:07:24.093Z,16.50
2022-09-22T18:09:53.784Z,16.40
2022-09-22T18:12:24.729Z,16.30
2022-09-22T18:14:55.499Z,16.20
2022-09-22T18:17:26.695Z,16.20
2022-09-22T18:19:55.729Z,16.10
2022-09-22T18:22:24.754Z,16.10
2022-09-22T18:24:55.509Z,16.00
2022-09-22T18:27:25.032Z,15.90
2022-09-22T18:29:54.077Z,15.90
2022-09-22T18:32:22.182Z,15.80
2022-09-22T18:34:53.823Z,15.80
2022-09-22T18:37:22.715Z,15.70
2022-09-22T18:39:51.222Z,15.70
2022-09-22T18:42:19.707Z,15.60
2022-09-22T18:44:47.968Z,15.60
2022-09-22T18:47:17.797Z,15.50
2022-09-22T18:49:48.098Z,15.50
2022-09-22T18:52:21.560Z,15.40
2022-09-22T18:54:51.759Z,15.40
2022-09-22T18:57:20.300Z,15.40
2022-09-22T18:59:51.012Z,15.30
2022-09-22T19:02:22.600Z,15.20
2022-09-22T19:04:52.181Z,15.20
2022-09-22T19:07:44.087Z,15.10
2022-09-22T19:10:14.058Z,15.10
2022-09-22T19:12:42.727Z,15.00
2022-09-22T19:15:14.965Z,15.00
2022-09-22T19:17:44.136Z,14.90
2022-09-22T19:20:14.680Z,14.80
2022-09-22T19:22:44.309Z,14.80
2022-09-22T19:25:12.471Z,14.70
2022-09-22T19:27:40.783Z,14.70
2022-09-22T19:30:09.669Z,14.60
2022-09-22T19:32:37.989Z,14.60
2022-09-22T19:35:07.239Z,14.50
2022-09-22T19:37:35.162Z,14.50
2022-09-22T19:40:05.820Z,14.40
2022-09-22T19:42:40.132Z,14.40
2022-09-22T19:45:09.391Z,14.30
2022-09-22T19:47:37.702Z,14.30
2022-09-22T19:50:07.965Z,14.20
2022-09-22T19:52:36.281Z,14.20
2022-09-22T19:55:06.189Z,14.20
2022-09-22T19:57:35.018Z,14.20
2022-09-22T20:00:03.205Z,14.10
2022-09-22T20:02:31.070Z,14.00
2022-09-22T20:04:58.968Z,14.00
2022-09-22T20:07:28.416Z,14.00
2022-09-22T20:09:57.250Z,14.00
2022-09-22T20:12:26.766Z,13.90
2022-09-22T20:14:54.655Z,13.90
2022-09-22T20:17:23.133Z,13.80
2022-09-22T20:19:51.045Z,13.80
2022-09-22T20:22:22.872Z,13.70
2022-09-22T20:24:57.125Z,13.70
2022-09-22T20:27:29.030Z,13.70
2022-09-22T20:29:57.803Z,13.60
2022-09-22T20:32:26.606Z,13.60
2022-09-22T20:34:55.887Z,13.50
2022-09-22T20:37:24.467Z,13.50
2022-09-22T20:39:52.470Z,13.50
2022-09-22T20:42:20.374Z,13.40
2022-09-22T20:44:49.619Z,13.40
2022-09-22T20:47:18.846Z,13.30
2022-09-22T20:49:51.575Z,13.30
2022-09-22T20:52:21.192Z,13.30
2022-09-22T20:54:49.486Z,13.20
2022-09-22T20:57:17.814Z,13.20
2022-09-22T20:59:46.295Z,13.10
2022-09-22T21:02:16.919Z,13.10
2022-09-22T21:04:44.946Z,13.10
2022-09-22T21:07:12.916Z,13.00
2022-09-22T21:10:00.738Z,13.00
2022-09-22T21:12:31.643Z,12.90
2022-09-22T21:14:59.629Z,12.90
2022-09-22T21:17:29.648Z,12.90
2022-09-22T21:19:58.136Z,12.80
2022-09-22T21:22:28.007Z,12.80
2022-09-22T21:24:56.278Z,12.80
2022-09-22T21:27:24.645Z,12.70
2022-09-22T21:29:53.161Z,12.70
2022-09-22T21:32:21.204Z,12.60
2022-09-22T21:34:50.433Z,12.60
2022-09-22T21:37:18.915Z,12.60
2022-09-22T21:39:46.822Z,12.60
2022-09-22T21:42:14.732Z,12.50
2022-09-22T21:44:42.735Z,12.50
2022-09-22T21:47:11.460Z,12.50
2022-09-22T21:49:39.427Z,12.50
2022-09-22T21:52:08.728Z,12.40
2022-09-22T21:54:36.927Z,12.40
2022-09-22T21:57:04.938Z,12.40
2022-09-22T21:59:32.882Z,12.40
2022-09-22T22:02:00.953Z,12.30
2022-09-22T22:04:28.867Z,12.30
2022-09-22T22:06:56.792Z,12.20
2022-09-22T22:09:26.295Z,12.20
2022-09-22T22:11:56.998Z,12.20
2022-09-22T22:14:27.247Z,12.20
2022-09-22T22:16:56.209Z,12.10
2022-09-22T22:19:26.889Z,12.10
2022-09-22T22:21:55.180Z,12.10
2022-09-22T22:24:33.039Z,12.00
2022-09-22T22:27:06.169Z,12.00
2022-09-22T22:29:36.251Z,12.00
2022-09-22T22:32:05.024Z,12.00
2022-09-22T22:34:33.138Z,11.90
2022-09-22T22:37:01.166Z,11.90
2022-09-22T22:39:30.509Z,11.90
2022-09-22T22:41:58.672Z,11.80
2022-09-22T22:44:28.772Z,11.80
2022-09-22T22:46:56.727Z,11.80
2022-09-22T22:49:24.808Z,11.70
2022-09-22T22:51:53.055Z,11.70
2022-09-22T22:54:20.996Z,11.70
2022-09-22T22:56:51.406Z,11.70
2022-09-22T22:59:20.117Z,11.70
2022-09-22T23:01:48.093Z,11.60
2022-09-22T23:04:16.640Z,11.60
2022-09-22T23:06:44.910Z,11.60
2022-09-22T23:09:15.598Z,11.60
2022-09-22T23:11:45.773Z,11.60
2022-09-22T23:14:17.002Z,11.50
2022-09-22T23:16:46.914Z,11.50
2022-09-22T23:19:16.773Z,11.50
2022-09-22T23:21:45.804Z,11.50
2022-09-22T23:24:16.216Z,11.50
2022-09-22T23:26:44.677Z,11.50
2022-09-22T23:29:14.149Z,11.50
2022-09-22T23:31:42.112Z,11.50
2022-09-22T23:34:10.079Z,11.40
2022-09-22T23:36:39.394Z,11.40
2022-09-22T23:39:07.500Z,11.40
2022-09-22T23:41:37.459Z,11.30
2022-09-22T23:44:07.139Z,11.30
2022-09-22T23:46:38.204Z,11.30
2022-09-22T23:49:06.577Z,11.20
2022-09-22T23:51:34.494Z,11.30
2022-09-22T23:54:02.509Z,11.30
2022-09-22T23:56:30.426Z,11.20
2022-09-22T23:58:58.478Z,11.20
